sensor_id;sensor_type;location;lat;lon;timestamp;P1;durP1;ratioP1;P2;durP2;ratioP2
53694;SDS011;39588;51.124;7.190;2023-07-13T00:01:46;0.70;;;0.50;;
53694;SDS011;39588;51.124;7.190;2023-07-13T00:04:14;1.43;;;0.77;;
53694;SDS011;39588;51.124;7.190;2023-07-13T00:06:45;4.57;;;1.67;;
53694;SDS011;39588;51.124;7.190;2023-07-13T00:09:12;4.57;;;0.87;;
53694;SDS011;39588;51.124;7.190;2023-07-13T00:11:42;0.70;;;0.70;;
53694;SDS011;39588;51.124;7.190;2023-07-13T00:14:08;2.20;;;0.60;;
53694;SDS011;39588;51.124;7.190;2023-07-13T00:16:35;2.03;;;0.80;;
53694;SDS011;39588;51.124;7.190;2023-07-13T00:19:03;3.80;;;0.83;;
53694;SDS011;39588;51.124;7.190;2023-07-13T00:21:29;0.80;;;0.80;;
53694;SDS011;39588;51.124;7.190;2023-07-13T00:23:55;1.20;;;0.80;;
53694;SDS011;39588;51.124;7.190;2023-07-13T00:26:21;3.10;;;0.83;;
53694;SDS011;39588;51.124;7.190;2023-07-13T00:28:47;3.97;;;0.67;;
53694;SDS011;39588;51.124;7.190;2023-07-13T00:31:13;0.50;;;0.50;;
53694;SDS011;39588;51.124;7.190;2023-07-13T00:33:42;2.23;;;0.77;;
53694;SDS011;39588;51.124;7.190;2023-07-13T00:36:07;2.93;;;0.80;;
53694;SDS011;39588;51.124;7.190;2023-07-13T00:38:34;2.63;;;1.00;;
53694;SDS011;39588;51.124;7.190;2023-07-13T00:41:00;0.70;;;0.70;;
53694;SDS011;39588;51.124;7.190;2023-07-13T00:43:26;0.50;;;0.50;;
53694;SDS011;39588;51.124;7.190;2023-07-13T00:48:20;0.97;;;0.50;;
53694;SDS011;39588;51.124;7.190;2023-07-13T00:50:50;1.90;;;0.70;;
53694;SDS011;39588;51.124;7.190;2023-07-13T00:53:20;0.50;;;0.50;;
53694;SDS011;39588;51.124;7.190;2023-07-13T00:55:47;1.00;;;0.60;;
53694;SDS011;39588;51.124;7.190;2023-07-13T00:58:14;0.50;;;0.50;;
53694;SDS011;39588;51.124;7.190;2023-07-13T01:00:41;0.83;;;0.60;;
53694;SDS011;39588;51.124;7.190;2023-07-13T01:03:07;0.63;;;0.63;;
53694;SDS011;39588;51.124;7.190;2023-07-13T01:05:34;0.73;;;0.73;;
53694;SDS011;39588;51.124;7.190;2023-07-13T01:08:00;1.77;;;0.77;;
53694;SDS011;39588;51.124;7.190;2023-07-13T01:10:27;1.43;;;0.80;;
53694;SDS011;39588;51.124;7.190;2023-07-13T01:12:53;0.87;;;0.60;;
53694;SDS011;39588;51.124;7.190;2023-07-13T01:15:39;0.50;;;0.50;;
53694;SDS011;39588;51.124;7.190;2023-07-13T01:18:07;4.37;;;0.70;;
53694;SDS011;39588;51.124;7.190;2023-07-13T01:20:36;0.73;;;0.73;;
53694;SDS011;39588;51.124;7.190;2023-07-13T01:23:05;0.60;;;0.40;;
53694;SDS011;39588;51.124;7.190;2023-07-13T01:25:34;0.70;;;0.70;;
53694;SDS011;39588;51.124;7.190;2023-07-13T01:28:01;0.60;;;0.60;;
53694;SDS011;39588;51.124;7.190;2023-07-13T01:30:31;0.40;;;0.40;;
53694;SDS011;39588;51.124;7.190;2023-07-13T01:32:57;2.73;;;0.60;;
53694;SDS011;39588;51.124;7.190;2023-07-13T01:35:23;1.80;;;1.30;;
53694;SDS011;39588;51.124;7.190;2023-07-13T01:37:50;1.30;;;0.73;;
53694;SDS011;39588;51.124;7.190;2023-07-13T01:40:16;4.57;;;1.03;;
53694;SDS011;39588;51.124;7.190;2023-07-13T01:42:42;1.30;;;0.73;;
53694;SDS011;39588;51.124;7.190;2023-07-13T01:45:08;0.50;;;0.50;;
53694;SDS011;39588;51.124;7.190;2023-07-13T01:47:33;0.80;;;0.80;;
53694;SDS011;39588;51.124;7.190;2023-07-13T01:49:59;1.63;;;1.00;;
53694;SDS011;39588;51.124;7.190;2023-07-13T01:52:25;1.07;;;0.50;;
53694;SDS011;39588;51.124;7.190;2023-07-13T01:54:51;3.63;;;1.47;;
53694;SDS011;39588;51.124;7.190;2023-07-13T01:57:17;2.10;;;0.80;;
53694;SDS011;39588;51.124;7.190;2023-07-13T01:59:43;2.63;;;0.50;;
53694;SDS011;39588;51.124;7.190;2023-07-13T02:02:09;0.40;;;0.40;;
53694;SDS011;39588;51.124;7.190;2023-07-13T02:04:35;0.80;;;0.80;;
53694;SDS011;39588;51.124;7.190;2023-07-13T02:07:02;0.63;;;0.33;;
53694;SDS011;39588;51.124;7.190;2023-07-13T02:09:27;2.10;;;0.80;;
53694;SDS011;39588;51.124;7.190;2023-07-13T02:11:53;0.53;;;0.53;;
53694;SDS011;39588;51.124;7.190;2023-07-13T02:14:19;4.13;;;0.90;;
53694;SDS011;39588;51.124;7.190;2023-07-13T02:16:45;2.13;;;0.47;;
53694;SDS011;39588;51.124;7.190;2023-07-13T02:19:13;0.50;;;0.50;;
53694;SDS011;39588;51.124;7.190;2023-07-13T02:21:39;4.23;;;0.77;;
53694;SDS011;39588;51.124;7.190;2023-07-13T02:24:04;1.80;;;0.80;;
53694;SDS011;39588;51.124;7.190;2023-07-13T02:26:30;1.63;;;0.80;;
53694;SDS011;39588;51.124;7.190;2023-07-13T02:28:56;9.13;;;1.23;;
53694;SDS011;39588;51.124;7.190;2023-07-13T02:31:22;1.00;;;0.80;;
53694;SDS011;39588;51.124;7.190;2023-07-13T02:33:48;1.20;;;0.87;;
53694;SDS011;39588;51.124;7.190;2023-07-13T02:36:14;1.80;;;1.03;;
53694;SDS011;39588;51.124;7.190;2023-07-13T02:38:41;1.67;;;0.67;;
53694;SDS011;39588;51.124;7.190;2023-07-13T02:41:07;0.97;;;0.63;;
53694;SDS011;39588;51.124;7.190;2023-07-13T02:43:34;0.77;;;0.70;;
53694;SDS011;39588;51.124;7.190;2023-07-13T02:46:00;1.40;;;0.97;;
53694;SDS011;39588;51.124;7.190;2023-07-13T02:48:32;0.60;;;0.60;;
53694;SDS011;39588;51.124;7.190;2023-07-13T02:50:58;1.00;;;0.90;;
53694;SDS011;39588;51.124;7.190;2023-07-13T02:53:24;0.47;;;0.47;;
53694;SDS011;39588;51.124;7.190;2023-07-13T02:55:52;2.13;;;0.87;;
53694;SDS011;39588;51.124;7.190;2023-07-13T02:58:18;2.43;;;0.80;;
53694;SDS011;39588;51.124;7.190;2023-07-13T03:00:44;4.23;;;0.67;;
53694;SDS011;39588;51.124;7.190;2023-07-13T03:03:11;0.57;;;0.50;;
53694;SDS011;39588;51.124;7.190;2023-07-13T03:05:40;2.20;;;0.73;;
53694;SDS011;39588;51.124;7.190;2023-07-13T03:08:07;0.50;;;0.50;;
53694;SDS011;39588;51.124;7.190;2023-07-13T03:10:33;0.93;;;0.73;;
53694;SDS011;39588;51.124;7.190;2023-07-13T03:12:59;2.33;;;1.23;;
53694;SDS011;39588;51.124;7.190;2023-07-13T03:15:25;0.80;;;0.67;;
53694;SDS011;39588;51.124;7.190;2023-07-13T03:17:51;0.93;;;0.40;;
53694;SDS011;39588;51.124;7.190;2023-07-13T03:20:17;0.60;;;0.60;;
53694;SDS011;39588;51.124;7.190;2023-07-13T03:22:43;0.40;;;0.40;;
53694;SDS011;39588;51.124;7.190;2023-07-13T03:25:09;0.60;;;0.60;;
53694;SDS011;39588;51.124;7.190;2023-07-13T03:27:36;0.50;;;0.50;;
53694;SDS011;39588;51.124;7.190;2023-07-13T03:30:02;0.40;;;0.40;;
53694;SDS011;39588;51.124;7.190;2023-07-13T03:32:32;0.90;;;0.90;;
53694;SDS011;39588;51.124;7.190;2023-07-13T03:34:58;0.70;;;0.70;;
53694;SDS011;39588;51.124;7.190;2023-07-13T03:37:24;1.33;;;0.90;;
53694;SDS011;39588;51.124;7.190;2023-07-13T03:39:50;0.73;;;0.67;;
53694;SDS011;39588;51.124;7.190;2023-07-13T03:42:16;0.73;;;0.70;;
53694;SDS011;39588;51.124;7.190;2023-07-13T03:44:42;0.50;;;0.50;;
53694;SDS011;39588;51.124;7.190;2023-07-13T03:47:15;1.13;;;0.90;;
53694;SDS011;39588;51.124;7.190;2023-07-13T03:49:41;0.80;;;0.80;;
53694;SDS011;39588;51.124;7.190;2023-07-13T03:52:06;0.50;;;0.50;;
53694;SDS011;39588;51.124;7.190;2023-07-13T03:54:32;3.30;;;0.60;;
53694;SDS011;39588;51.124;7.190;2023-07-13T03:56:58;2.43;;;0.83;;
53694;SDS011;39588;51.124;7.190;2023-07-13T03:59:24;3.80;;;0.40;;
53694;SDS011;39588;51.124;7.190;2023-07-13T04:01:50;1.03;;;0.70;;
53694;SDS011;39588;51.124;7.190;2023-07-13T04:04:16;0.50;;;0.50;;
53694;SDS011;39588;51.124;7.190;2023-07-13T04:06:42;8.80;;;1.30;;
53694;SDS011;39588;51.124;7.190;2023-07-13T04:09:08;3.70;;;0.77;;
53694;SDS011;39588;51.124;7.190;2023-07-13T04:11:34;2.80;;;1.03;;
53694;SDS011;39588;51.124;7.190;2023-07-13T04:14:03;0.73;;;0.73;;
53694;SDS011;39588;51.124;7.190;2023-07-13T04:16:29;0.63;;;0.63;;
53694;SDS011;39588;51.124;7.190;2023-07-13T04:18:55;0.93;;;0.87;;
53694;SDS011;39588;51.124;7.190;2023-07-13T04:21:25;0.60;;;0.60;;
53694;SDS011;39588;51.124;7.190;2023-07-13T04:23:52;0.93;;;0.77;;
53694;SDS011;39588;51.124;7.190;2023-07-13T04:26:17;1.33;;;0.93;;
53694;SDS011;39588;51.124;7.190;2023-07-13T04:28:46;4.23;;;0.67;;
53694;SDS011;39588;51.124;7.190;2023-07-13T04:31:12;0.57;;;0.50;;
53694;SDS011;39588;51.124;7.190;2023-07-13T04:33:38;2.47;;;0.83;;
53694;SDS011;39588;51.124;7.190;2023-07-13T04:36:04;1.73;;;0.67;;
53694;SDS011;39588;51.124;7.190;2023-07-13T04:38:31;2.43;;;0.70;;
53694;SDS011;39588;51.124;7.190;2023-07-13T04:40:59;0.57;;;0.57;;
53694;SDS011;39588;51.124;7.190;2023-07-13T04:43:26;2.50;;;0.73;;
53694;SDS011;39588;51.124;7.190;2023-07-13T04:45:52;1.23;;;1.00;;
53694;SDS011;39588;51.124;7.190;2023-07-13T04:48:19;6.10;;;1.00;;
53694;SDS011;39588;51.124;7.190;2023-07-13T04:50:45;0.93;;;0.93;;
53694;SDS011;39588;51.124;7.190;2023-07-13T04:53:11;3.97;;;0.87;;
53694;SDS011;39588;51.124;7.190;2023-07-13T04:55:37;0.53;;;0.53;;
53694;SDS011;39588;51.124;7.190;2023-07-13T04:58:03;0.40;;;0.40;;
53694;SDS011;39588;51.124;7.190;2023-07-13T05:00:29;3.87;;;0.80;;
53694;SDS011;39588;51.124;7.190;2023-07-13T05:02:56;0.60;;;0.60;;
53694;SDS011;39588;51.124;7.190;2023-07-13T05:05:23;0.67;;;0.67;;
53694;SDS011;39588;51.124;7.190;2023-07-13T05:07:49;1.03;;;0.90;;
53694;SDS011;39588;51.124;7.190;2023-07-13T05:10:15;7.73;;;0.90;;
53694;SDS011;39588;51.124;7.190;2023-07-13T05:12:41;4.10;;;1.73;;
53694;SDS011;39588;51.124;7.190;2023-07-13T05:15:07;5.93;;;1.07;;
53694;SDS011;39588;51.124;7.190;2023-07-13T05:17:33;3.17;;;0.70;;
53694;SDS011;39588;51.124;7.190;2023-07-13T05:19:59;3.13;;;0.80;;
53694;SDS011;39588;51.124;7.190;2023-07-13T05:22:25;0.63;;;0.63;;
53694;SDS011;39588;51.124;7.190;2023-07-13T05:24:51;0.87;;;0.80;;
53694;SDS011;39588;51.124;7.190;2023-07-13T05:27:17;2.33;;;1.10;;
53694;SDS011;39588;51.124;7.190;2023-07-13T05:29:43;2.43;;;1.03;;
53694;SDS011;39588;51.124;7.190;2023-07-13T05:32:09;2.30;;;1.07;;
53694;SDS011;39588;51.124;7.190;2023-07-13T05:34:35;1.33;;;0.57;;
53694;SDS011;39588;51.124;7.190;2023-07-13T05:37:01;0.60;;;0.60;;
53694;SDS011;39588;51.124;7.190;2023-07-13T05:39:27;4.97;;;1.27;;
53694;SDS011;39588;51.124;7.190;2023-07-13T05:41:54;0.77;;;0.77;;
53694;SDS011;39588;51.124;7.190;2023-07-13T05:44:20;1.10;;;0.97;;
53694;SDS011;39588;51.124;7.190;2023-07-13T05:46:46;1.70;;;0.90;;
53694;SDS011;39588;51.124;7.190;2023-07-13T05:49:12;3.50;;;1.37;;
53694;SDS011;39588;51.124;7.190;2023-07-13T05:51:38;1.83;;;0.80;;
53694;SDS011;39588;51.124;7.190;2023-07-13T05:54:03;1.47;;;0.93;;
53694;SDS011;39588;51.124;7.190;2023-07-13T05:56:29;1.30;;;0.73;;
53694;SDS011;39588;51.124;7.190;2023-07-13T05:58:55;2.20;;;1.37;;
53694;SDS011;39588;51.124;7.190;2023-07-13T06:01:21;1.47;;;0.97;;
53694;SDS011;39588;51.124;7.190;2023-07-13T06:03:48;0.83;;;0.83;;
53694;SDS011;39588;51.124;7.190;2023-07-13T06:06:14;1.57;;;1.10;;
53694;SDS011;39588;51.124;7.190;2023-07-13T06:08:40;0.67;;;0.67;;
53694;SDS011;39588;51.124;7.190;2023-07-13T06:11:09;1.30;;;0.83;;
53694;SDS011;39588;51.124;7.190;2023-07-13T06:13:42;2.03;;;1.37;;
53694;SDS011;39588;51.124;7.190;2023-07-13T06:16:09;1.57;;;1.17;;
53694;SDS011;39588;51.124;7.190;2023-07-13T06:18:35;3.27;;;1.10;;
53694;SDS011;39588;51.124;7.190;2023-07-13T06:21:06;3.10;;;1.27;;
53694;SDS011;39588;51.124;7.190;2023-07-13T06:23:32;2.77;;;0.90;;
53694;SDS011;39588;51.124;7.190;2023-07-13T06:25:58;6.87;;;1.00;;
53694;SDS011;39588;51.124;7.190;2023-07-13T06:28:24;1.83;;;1.23;;
53694;SDS011;39588;51.124;7.190;2023-07-13T06:30:50;1.53;;;0.73;;
53694;SDS011;39588;51.124;7.190;2023-07-13T06:33:15;5.07;;;1.20;;
53694;SDS011;39588;51.124;7.190;2023-07-13T06:35:42;6.80;;;1.10;;
53694;SDS011;39588;51.124;7.190;2023-07-13T06:38:07;9.83;;;0.90;;
53694;SDS011;39588;51.124;7.190;2023-07-13T06:40:34;3.80;;;1.07;;
53694;SDS011;39588;51.124;7.190;2023-07-13T06:43:00;2.67;;;0.90;;
53694;SDS011;39588;51.124;7.190;2023-07-13T06:45:26;2.27;;;0.83;;
53694;SDS011;39588;51.124;7.190;2023-07-13T06:47:52;6.23;;;1.37;;
53694;SDS011;39588;51.124;7.190;2023-07-13T06:50:18;5.43;;;1.20;;
53694;SDS011;39588;51.124;7.190;2023-07-13T06:52:43;5.90;;;1.10;;
53694;SDS011;39588;51.124;7.190;2023-07-13T06:55:09;6.53;;;1.77;;
53694;SDS011;39588;51.124;7.190;2023-07-13T06:57:35;4.83;;;1.00;;
53694;SDS011;39588;51.124;7.190;2023-07-13T07:00:02;1.47;;;1.30;;
53694;SDS011;39588;51.124;7.190;2023-07-13T07:02:27;5.97;;;1.10;;
53694;SDS011;39588;51.124;7.190;2023-07-13T07:04:53;1.03;;;0.93;;
53694;SDS011;39588;51.124;7.190;2023-07-13T07:07:19;6.00;;;1.00;;
53694;SDS011;39588;51.124;7.190;2023-07-13T07:09:45;1.50;;;0.80;;
53694;SDS011;39588;51.124;7.190;2023-07-13T07:12:11;3.40;;;1.20;;
53694;SDS011;39588;51.124;7.190;2023-07-13T07:14:37;7.43;;;1.13;;
53694;SDS011;39588;51.124;7.190;2023-07-13T07:17:03;4.57;;;1.27;;
53694;SDS011;39588;51.124;7.190;2023-07-13T07:19:29;4.43;;;1.37;;
53694;SDS011;39588;51.124;7.190;2023-07-13T07:21:55;5.93;;;1.23;;
53694;SDS011;39588;51.124;7.190;2023-07-13T07:24:21;1.33;;;1.30;;
53694;SDS011;39588;51.124;7.190;2023-07-13T07:26:47;3.40;;;1.30;;
53694;SDS011;39588;51.124;7.190;2023-07-13T07:29:13;9.37;;;1.30;;
53694;SDS011;39588;51.124;7.190;2023-07-13T07:31:39;2.40;;;0.97;;
53694;SDS011;39588;51.124;7.190;2023-07-13T07:34:05;1.80;;;1.10;;
53694;SDS011;39588;51.124;7.190;2023-07-13T07:36:30;5.20;;;1.20;;
53694;SDS011;39588;51.124;7.190;2023-07-13T07:38:56;3.47;;;1.40;;
53694;SDS011;39588;51.124;7.190;2023-07-13T07:41:22;2.00;;;1.20;;
53694;SDS011;39588;51.124;7.190;2023-07-13T07:43:48;2.00;;;1.20;;
53694;SDS011;39588;51.124;7.190;2023-07-13T07:46:13;9.93;;;1.23;;
53694;SDS011;39588;51.124;7.190;2023-07-13T07:48:39;3.87;;;1.30;;
53694;SDS011;39588;51.124;7.190;2023-07-13T07:51:05;1.00;;;1.00;;
53694;SDS011;39588;51.124;7.190;2023-07-13T07:53:31;4.13;;;1.63;;
53694;SDS011;39588;51.124;7.190;2023-07-13T07:55:56;2.70;;;1.53;;
53694;SDS011;39588;51.124;7.190;2023-07-13T07:58:22;1.50;;;1.40;;
53694;SDS011;39588;51.124;7.190;2023-07-13T08:00:48;3.40;;;1.73;;
53694;SDS011;39588;51.124;7.190;2023-07-13T08:03:14;1.50;;;1.10;;
53694;SDS011;39588;51.124;7.190;2023-07-13T08:05:40;7.67;;;1.50;;
53694;SDS011;39588;51.124;7.190;2023-07-13T08:08:05;1.70;;;1.60;;
53694;SDS011;39588;51.124;7.190;2023-07-13T08:10:31;2.30;;;1.70;;
53694;SDS011;39588;51.124;7.190;2023-07-13T08:13:00;2.37;;;1.43;;
53694;SDS011;39588;51.124;7.190;2023-07-13T08:15:26;3.33;;;1.60;;
53694;SDS011;39588;51.124;7.190;2023-07-13T08:17:51;3.23;;;1.90;;
53694;SDS011;39588;51.124;7.190;2023-07-13T08:20:17;3.87;;;1.70;;
53694;SDS011;39588;51.124;7.190;2023-07-13T08:22:43;3.20;;;1.90;;
53694;SDS011;39588;51.124;7.190;2023-07-13T08:25:09;2.33;;;1.53;;
53694;SDS011;39588;51.124;7.190;2023-07-13T08:27:34;2.67;;;1.77;;
53694;SDS011;39588;51.124;7.190;2023-07-13T08:30:00;6.00;;;2.00;;
53694;SDS011;39588;51.124;7.190;2023-07-13T08:32:26;2.07;;;1.60;;
53694;SDS011;39588;51.124;7.190;2023-07-13T08:34:52;3.47;;;1.90;;
53694;SDS011;39588;51.124;7.190;2023-07-13T08:37:19;3.47;;;2.00;;
53694;SDS011;39588;51.124;7.190;2023-07-13T08:39:45;2.23;;;1.87;;
53694;SDS011;39588;51.124;7.190;2023-07-13T08:42:15;1.63;;;1.50;;
53694;SDS011;39588;51.124;7.190;2023-07-13T08:45:21;6.73;;;1.93;;
53694;SDS011;39588;51.124;7.190;2023-07-13T08:50:34;4.87;;;1.53;;
53694;SDS011;39588;51.124;7.190;2023-07-13T08:53:05;4.17;;;1.40;;
53694;SDS011;39588;51.124;7.190;2023-07-13T08:55:34;4.90;;;1.63;;
53694;SDS011;39588;51.124;7.190;2023-07-13T08:58:11;4.80;;;1.90;;
53694;SDS011;39588;51.124;7.190;2023-07-13T09:00:46;4.70;;;1.53;;
53694;SDS011;39588;51.124;7.190;2023-07-13T09:03:29;6.07;;;1.57;;
53694;SDS011;39588;51.124;7.190;2023-07-13T09:06:02;2.30;;;1.57;;
53694;SDS011;39588;51.124;7.190;2023-07-13T09:11:49;3.13;;;1.40;;
53694;SDS011;39588;51.124;7.190;2023-07-13T09:17:02;2.73;;;1.37;;
53694;SDS011;39588;51.124;7.190;2023-07-13T09:19:36;1.27;;;1.17;;
53694;SDS011;39588;51.124;7.190;2023-07-13T09:22:03;2.23;;;1.17;;
53694;SDS011;39588;51.124;7.190;2023-07-13T09:24:39;1.63;;;1.30;;
53694;SDS011;39588;51.124;7.190;2023-07-13T09:27:14;1.53;;;1.30;;
53694;SDS011;39588;51.124;7.190;2023-07-13T09:29:48;2.37;;;2.17;;
53694;SDS011;39588;51.124;7.190;2023-07-13T09:32:33;8.67;;;1.27;;
53694;SDS011;39588;51.124;7.190;2023-07-13T09:34:59;12.70;;;1.63;;
53694;SDS011;39588;51.124;7.190;2023-07-13T09:37:28;7.30;;;1.57;;
53694;SDS011;39588;51.124;7.190;2023-07-13T09:39:57;6.60;;;1.50;;
53694;SDS011;39588;51.124;7.190;2023-07-13T09:42:24;9.93;;;1.60;;
53694;SDS011;39588;51.124;7.190;2023-07-13T09:44:58;1.80;;;1.47;;
53694;SDS011;39588;51.124;7.190;2023-07-13T09:47:31;3.77;;;1.30;;
53694;SDS011;39588;51.124;7.190;2023-07-13T09:50:03;2.20;;;1.30;;
53694;SDS011;39588;51.124;7.190;2023-07-13T09:52:48;2.47;;;1.33;;
53694;SDS011;39588;51.124;7.190;2023-07-13T10:00:37;1.93;;;1.30;;
53694;SDS011;39588;51.124;7.190;2023-07-13T10:03:21;1.73;;;1.30;;
53694;SDS011;39588;51.124;7.190;2023-07-13T10:05:52;2.00;;;1.20;;
53694;SDS011;39588;51.124;7.190;2023-07-13T10:10:46;2.40;;;1.20;;
53694;SDS011;39588;51.124;7.190;2023-07-13T10:13:26;9.03;;;1.30;;
53694;SDS011;39588;51.124;7.190;2023-07-13T10:15:53;1.43;;;1.20;;
53694;SDS011;39588;51.124;7.190;2023-07-13T10:18:20;4.30;;;1.23;;
53694;SDS011;39588;51.124;7.190;2023-07-13T10:20:46;1.77;;;1.40;;
53694;SDS011;39588;51.124;7.190;2023-07-13T10:23:15;1.40;;;1.30;;
53694;SDS011;39588;51.124;7.190;2023-07-13T10:25:47;2.30;;;1.57;;
53694;SDS011;39588;51.124;7.190;2023-07-13T10:28:21;3.50;;;1.77;;
53694;SDS011;39588;51.124;7.190;2023-07-13T10:30:58;3.33;;;1.17;;
53694;SDS011;39588;51.124;7.190;2023-07-13T10:33:25;1.37;;;0.90;;
53694;SDS011;39588;51.124;7.190;2023-07-13T10:35:54;1.17;;;1.07;;
53694;SDS011;39588;51.124;7.190;2023-07-13T10:38:21;1.63;;;1.30;;
53694;SDS011;39588;51.124;7.190;2023-07-13T10:43:23;7.90;;;2.37;;
53694;SDS011;39588;51.124;7.190;2023-07-13T10:45:51;7.60;;;1.20;;
53694;SDS011;39588;51.124;7.190;2023-07-13T10:48:27;1.80;;;1.10;;
53694;SDS011;39588;51.124;7.190;2023-07-13T10:50:54;1.50;;;1.37;;
53694;SDS011;39588;51.124;7.190;2023-07-13T10:53:27;5.70;;;1.30;;
53694;SDS011;39588;51.124;7.190;2023-07-13T10:55:56;3.73;;;1.33;;
53694;SDS011;39588;51.124;7.190;2023-07-13T10:58:29;2.43;;;1.00;;
53694;SDS011;39588;51.124;7.190;2023-07-13T11:03:28;1.13;;;0.90;;
53694;SDS011;39588;51.124;7.190;2023-07-13T11:06:07;2.10;;;1.20;;
53694;SDS011;39588;51.124;7.190;2023-07-13T11:08:56;2.63;;;0.87;;
53694;SDS011;39588;51.124;7.190;2023-07-13T11:14:03;1.40;;;1.17;;
53694;SDS011;39588;51.124;7.190;2023-07-13T11:16:43;1.10;;;1.00;;
53694;SDS011;39588;51.124;7.190;2023-07-13T11:27:39;4.57;;;1.50;;
53694;SDS011;39588;51.124;7.190;2023-07-13T11:35:43;2.67;;;1.23;;
53694;SDS011;39588;51.124;7.190;2023-07-13T11:38:15;10.10;;;1.53;;
53694;SDS011;39588;51.124;7.190;2023-07-13T11:40:43;1.93;;;1.33;;
53694;SDS011;39588;51.124;7.190;2023-07-13T11:43:12;4.63;;;1.57;;
53694;SDS011;39588;51.124;7.190;2023-07-13T11:45:39;2.30;;;0.93;;
53694;SDS011;39588;51.124;7.190;2023-07-13T11:48:18;4.47;;;1.40;;
53694;SDS011;39588;51.124;7.190;2023-07-13T11:50:49;1.43;;;1.20;;
53694;SDS011;39588;51.124;7.190;2023-07-13T11:53:20;3.53;;;1.10;;
53694;SDS011;39588;51.124;7.190;2023-07-13T11:55:46;1.47;;;1.30;;
53694;SDS011;39588;51.124;7.190;2023-07-13T11:58:14;3.70;;;1.03;;
53694;SDS011;39588;51.124;7.190;2023-07-13T12:00:42;9.20;;;1.50;;
53694;SDS011;39588;51.124;7.190;2023-07-13T12:03:10;2.27;;;2.17;;
53694;SDS011;39588;51.124;7.190;2023-07-13T12:05:37;1.20;;;1.10;;
53694;SDS011;39588;51.124;7.190;2023-07-13T12:08:09;2.20;;;1.13;;
53694;SDS011;39588;51.124;7.190;2023-07-13T12:10:36;4.70;;;1.40;;
53694;SDS011;39588;51.124;7.190;2023-07-13T12:13:02;8.53;;;1.00;;
53694;SDS011;39588;51.124;7.190;2023-07-13T12:15:40;10.73;;;1.20;;
53694;SDS011;39588;51.124;7.190;2023-07-13T12:18:11;2.57;;;0.93;;
53694;SDS011;39588;51.124;7.190;2023-07-13T12:20:38;1.97;;;1.00;;
53694;SDS011;39588;51.124;7.190;2023-07-13T12:23:28;13.13;;;1.30;;
53694;SDS011;39588;51.124;7.190;2023-07-13T12:25:55;1.37;;;1.00;;
53694;SDS011;39588;51.124;7.190;2023-07-13T12:28:30;4.17;;;1.10;;
53694;SDS011;39588;51.124;7.190;2023-07-13T12:31:03;1.53;;;1.43;;
53694;SDS011;39588;51.124;7.190;2023-07-13T12:33:34;1.10;;;1.00;;
53694;SDS011;39588;51.124;7.190;2023-07-13T12:36:03;2.10;;;1.10;;
53694;SDS011;39588;51.124;7.190;2023-07-13T12:38:30;3.47;;;1.23;;
53694;SDS011;39588;51.124;7.190;2023-07-13T12:40:57;1.40;;;1.00;;
53694;SDS011;39588;51.124;7.190;2023-07-13T12:43:23;5.97;;;1.27;;
53694;SDS011;39588;51.124;7.190;2023-07-13T12:46:03;2.77;;;1.00;;
53694;SDS011;39588;51.124;7.190;2023-07-13T12:48:29;1.53;;;1.10;;
53694;SDS011;39588;51.124;7.190;2023-07-13T12:51:03;1.20;;;1.10;;
53694;SDS011;39588;51.124;7.190;2023-07-13T12:53:29;0.70;;;0.70;;
53694;SDS011;39588;51.124;7.190;2023-07-13T12:55:57;1.80;;;1.20;;
53694;SDS011;39588;51.124;7.190;2023-07-13T12:58:28;5.83;;;1.53;;
53694;SDS011;39588;51.124;7.190;2023-07-13T13:00:55;1.00;;;1.00;;
53694;SDS011;39588;51.124;7.190;2023-07-13T13:03:45;3.20;;;1.20;;
53694;SDS011;39588;51.124;7.190;2023-07-13T13:08:41;1.50;;;1.00;;
53694;SDS011;39588;51.124;7.190;2023-07-13T13:11:08;2.50;;;1.17;;
53694;SDS011;39588;51.124;7.190;2023-07-13T13:13:35;1.53;;;1.10;;
53694;SDS011;39588;51.124;7.190;2023-07-13T13:16:01;1.27;;;1.17;;
53694;SDS011;39588;51.124;7.190;2023-07-13T13:18:33;0.80;;;0.80;;
53694;SDS011;39588;51.124;7.190;2023-07-13T13:21:01;1.53;;;0.90;;
53694;SDS011;39588;51.124;7.190;2023-07-13T13:23:26;0.70;;;0.70;;
53694;SDS011;39588;51.124;7.190;2023-07-13T13:25:53;0.93;;;0.93;;
53694;SDS011;39588;51.124;7.190;2023-07-13T13:28:19;3.47;;;0.77;;
53694;SDS011;39588;51.124;7.190;2023-07-13T13:30:46;2.30;;;1.10;;
53694;SDS011;39588;51.124;7.190;2023-07-13T13:33:14;2.70;;;1.00;;
53694;SDS011;39588;51.124;7.190;2023-07-13T13:35:41;0.83;;;0.83;;
53694;SDS011;39588;51.124;7.190;2023-07-13T13:38:14;1.80;;;0.97;;
53694;SDS011;39588;51.124;7.190;2023-07-13T13:40:42;4.13;;;0.87;;
53694;SDS011;39588;51.124;7.190;2023-07-13T13:45:42;3.27;;;1.17;;
53694;SDS011;39588;51.124;7.190;2023-07-13T13:48:15;5.47;;;1.00;;
53694;SDS011;39588;51.124;7.190;2023-07-13T13:50:42;1.23;;;1.00;;
53694;SDS011;39588;51.124;7.190;2023-07-13T13:53:12;0.60;;;0.60;;
53694;SDS011;39588;51.124;7.190;2023-07-13T13:55:39;1.27;;;1.13;;
53694;SDS011;39588;51.124;7.190;2023-07-13T13:58:07;2.60;;;0.97;;
53694;SDS011;39588;51.124;7.190;2023-07-13T14:00:33;5.90;;;1.50;;
53694;SDS011;39588;51.124;7.190;2023-07-13T14:03:00;7.30;;;1.17;;
53694;SDS011;39588;51.124;7.190;2023-07-13T14:05:26;8.67;;;1.30;;
53694;SDS011;39588;51.124;7.190;2023-07-13T14:07:53;0.60;;;0.53;;
53694;SDS011;39588;51.124;7.190;2023-07-13T14:10:19;5.40;;;1.03;;
53694;SDS011;39588;51.124;7.190;2023-07-13T14:12:46;4.53;;;1.40;;
53694;SDS011;39588;51.124;7.190;2023-07-13T14:17:49;1.53;;;0.70;;
53694;SDS011;39588;51.124;7.190;2023-07-13T14:20:15;0.93;;;0.93;;
53694;SDS011;39588;51.124;7.190;2023-07-13T14:22:42;1.43;;;1.10;;
53694;SDS011;39588;51.124;7.190;2023-07-13T14:25:12;4.80;;;0.90;;
53694;SDS011;39588;51.124;7.190;2023-07-13T14:27:39;2.53;;;0.70;;
53694;SDS011;39588;51.124;7.190;2023-07-13T14:30:15;0.90;;;0.70;;
53694;SDS011;39588;51.124;7.190;2023-07-13T14:32:41;4.73;;;1.10;;
53694;SDS011;39588;51.124;7.190;2023-07-13T14:35:10;1.03;;;0.70;;
53694;SDS011;39588;51.124;7.190;2023-07-13T14:37:37;0.80;;;0.80;;
53694;SDS011;39588;51.124;7.190;2023-07-13T14:40:11;2.50;;;0.80;;
53694;SDS011;39588;51.124;7.190;2023-07-13T14:42:37;1.80;;;1.13;;
53694;SDS011;39588;51.124;7.190;2023-07-13T14:45:03;5.97;;;1.30;;
53694;SDS011;39588;51.124;7.190;2023-07-13T14:47:30;1.17;;;1.17;;
53694;SDS011;39588;51.124;7.190;2023-07-13T14:49:56;1.53;;;0.83;;
53694;SDS011;39588;51.124;7.190;2023-07-13T14:52:23;1.07;;;1.00;;
53694;SDS011;39588;51.124;7.190;2023-07-13T14:54:49;3.00;;;0.63;;
53694;SDS011;39588;51.124;7.190;2023-07-13T14:57:16;1.03;;;0.90;;
53694;SDS011;39588;51.124;7.190;2023-07-13T14:59:43;0.90;;;0.90;;
53694;SDS011;39588;51.124;7.190;2023-07-13T15:02:17;1.40;;;0.90;;
53694;SDS011;39588;51.124;7.190;2023-07-13T15:04:43;0.87;;;0.80;;
53694;SDS011;39588;51.124;7.190;2023-07-13T15:07:09;0.70;;;0.70;;
53694;SDS011;39588;51.124;7.190;2023-07-13T15:09:36;2.43;;;0.87;;
53694;SDS011;39588;51.124;7.190;2023-07-13T15:12:02;1.03;;;0.80;;
53694;SDS011;39588;51.124;7.190;2023-07-13T15:14:30;0.77;;;0.67;;
53694;SDS011;39588;51.124;7.190;2023-07-13T15:16:57;0.53;;;0.53;;
53694;SDS011;39588;51.124;7.190;2023-07-13T15:19:23;1.20;;;0.87;;
53694;SDS011;39588;51.124;7.190;2023-07-13T15:21:50;2.57;;;1.07;;
53694;SDS011;39588;51.124;7.190;2023-07-13T15:24:17;1.90;;;0.90;;
53694;SDS011;39588;51.124;7.190;2023-07-13T15:26:43;0.80;;;0.80;;
53694;SDS011;39588;51.124;7.190;2023-07-13T15:29:11;0.80;;;0.80;;
53694;SDS011;39588;51.124;7.190;2023-07-13T15:31:37;1.00;;;0.90;;
53694;SDS011;39588;51.124;7.190;2023-07-13T15:34:04;1.60;;;0.90;;
53694;SDS011;39588;51.124;7.190;2023-07-13T15:36:35;1.03;;;0.93;;
53694;SDS011;39588;51.124;7.190;2023-07-13T15:39:01;1.60;;;0.90;;
53694;SDS011;39588;51.124;7.190;2023-07-13T15:41:28;0.70;;;0.70;;